Time,TemperatureF,DewpointF,PressureIn,WindDirection,WindDirectionDegrees,WindSpeedMPH,WindSpeedGustMPH,Humidity,HourlyPrecipIn,Conditions,Clouds,dailyrainin,SoftwareType,DateUTC
2013-04-11 00:04:00,34.5,18.7,29.86,NE,45,25.0,27.0,52,0.08,,,0.40,meteohub,2013-04-11 05:04:00,
2013-04-11 00:09:00,34.5,18.7,29.85,East,90,23.0,25.0,52,0.08,,,0.00,meteohub,2013-04-11 05:09:00,
2013-04-11 00:15:00,34.5,18.3,29.85,NE,45,29.0,29.0,51,0.07,,,0.00,meteohub,2013-04-11 05:15:00,
2013-04-11 00:20:00,34.5,18.3,29.85,East,90,28.0,34.0,51,0.07,,,0.01,meteohub,2013-04-11 05:20:00,
2013-04-11 00:25:00,34.7,18.5,29.84,East,90,27.0,34.0,51,0.06,,,0.01,meteohub,2013-04-11 05:25:00,
2013-04-11 00:30:00,34.7,18.5,29.82,East,90,29.0,29.0,51,0.06,,,0.02,meteohub,2013-04-11 05:30:00,
2013-04-11 00:36:00,34.5,18.3,29.75,East,90,37.0,37.0,51,0.06,,,0.02,meteohub,2013-04-11 05:36:00,
2013-04-11 00:41:00,34.3,18.1,29.64,NE,45,58.0,58.0,51,0.06,,,0.04,meteohub,2013-04-11 05:41:00,
2013-04-11 00:46:00,34.3,18.5,29.64,ENE,68,55.0,59.0,52,0.09,,,0.08,meteohub,2013-04-11 05:46:00,
2013-04-11 00:51:00,34.5,18.7,29.75,East,90,34.0,59.0,52,0.11,,,0.09,meteohub,2013-04-11 05:51:00,
2013-04-11 00:56:00,34.7,18.5,29.74,East,90,33.0,59.0,51,0.11,,,0.09,meteohub,2013-04-11 05:56:00,
2013-04-11 01:02:00,34.9,18.5,29.75,East,90,29.0,55.0,51,0.09,,,0.09,meteohub,2013-04-11 06:02:00,
2013-04-11 01:07:00,34.9,18.5,29.76,East,90,29.0,39.0,51,0.09,,,0.09,meteohub,2013-04-11 06:07:00,
2013-04-11 01:12:00,35.1,17.8,29.73,East,90,37.0,39.0,49,0.08,,,0.09,meteohub,2013-04-11 06:12:00,
2013-04-11 01:17:00,35.1,17.8,29.77,East,90,24.0,40.0,49,0.08,,,0.09,meteohub,2013-04-11 06:17:00,
2013-04-11 01:22:00,35.2,18.0,29.80,ESE,113,24.0,40.0,49,0.08,,,0.09,meteohub,2013-04-11 06:22:00,
2013-04-11 01:28:00,35.2,17.6,29.79,ESE,113,23.0,40.0,48,0.08,,,0.09,meteohub,2013-04-11 06:28:00,
2013-04-11 01:33:00,35.2,17.6,29.78,East,90,29.0,32.0,48,0.07,,,0.09,meteohub,2013-04-11 06:33:00,
2013-04-11 01:38:00,35.2,17.6,29.78,East,90,27.0,27.0,48,0.07,,,0.09,meteohub,2013-04-11 06:38:00,
2013-04-11 01:44:00,35.2,17.6,29.76,East,90,27.0,34.0,48,0.06,,,0.09,meteohub,2013-04-11 06:44:00,
2013-04-11 01:49:00,35.2,17.6,29.78,East,90,24.0,34.0,48,0.00,,,0.09,meteohub,2013-04-11 06:49:00,
2013-04-11 01:54:00,35.4,17.6,29.78,East,90,31.0,34.0,48,0.00,,,0.09,meteohub,2013-04-11 06:54:00,
2013-04-11 02:00:00,35.4,17.6,29.77,East,90,30.0,33.0,48,0.00,,,0.09,meteohub,2013-04-11 07:00:00,
2013-04-11 02:05:00,35.4,17.6,29.77,East,90,30.0,33.0,48,0.00,,,0.09,meteohub,2013-04-11 07:05:00,
2013-04-11 02:10:00,35.2,17.6,29.77,East,90,31.0,31.0,48,0.00,,,0.09,meteohub,2013-04-11 07:10:00,
2013-04-11 02:15:00,35.2,17.6,29.77,East,90,25.0,31.0,48,0.00,,,0.09,meteohub,2013-04-11 07:15:00,
2013-04-11 02:21:00,35.2,17.6,29.76,East,90,25.0,31.0,48,0.00,,,0.09,meteohub,2013-04-11 07:21:00,
2013-04-11 02:26:00,35.1,17.8,29.76,East,90,22.0,31.0,49,0.00,,,0.09,meteohub,2013-04-11 07:26:00,
2013-04-11 02:31:00,35.1,17.8,29.75,NE,45,31.0,31.0,49,0.00,,,0.09,meteohub,2013-04-11 07:31:00,
2013-04-11 02:37:00,35.1,17.8,29.75,East,90,24.0,34.0,49,0.01,,,0.11,meteohub,2013-04-11 07:37:00,
2013-04-11 02:42:00,34.9,18.1,29.75,East,90,30.0,34.0,50,0.01,,,0.11,meteohub,2013-04-11 07:42:00,
2013-04-11 02:47:00,34.9,18.1,29.74,East,90,27.0,34.0,50,0.01,,,0.11,meteohub,2013-04-11 07:47:00,
2013-04-11 02:52:00,34.9,18.1,29.75,ENE,68,24.0,30.0,50,0.01,,,0.11,meteohub,2013-04-11 07:52:00,
2013-04-11 02:57:00,34.9,18.1,29.74,East,90,27.0,30.0,50,0.01,,,0.11,meteohub,2013-04-11 07:57:00,
2013-04-11 03:02:00,34.9,18.1,29.74,ENE,68,30.0,30.0,50,0.01,,,0.11,meteohub,2013-04-11 08:02:00,
2013-04-11 03:07:00,34.9,18.1,29.73,ENE,68,28.0,33.0,50,0.01,,,0.11,meteohub,2013-04-11 08:07:00,
2013-04-11 03:12:00,34.9,18.1,29.74,East,90,25.0,34.0,50,0.02,,,0.11,meteohub,2013-04-11 08:12:00,
2013-04-11 03:18:00,34.9,18.1,29.74,East,90,22.0,34.0,50,0.02,,,0.12,meteohub,2013-04-11 08:18:00,
2013-04-11 03:23:00,34.9,18.1,29.73,East,90,25.0,34.0,50,0.02,,,0.12,meteohub,2013-04-11 08:23:00,
2013-04-11 03:28:00,34.9,18.1,29.74,East,90,25.0,34.0,50,0.02,,,0.12,meteohub,2013-04-11 08:28:00,
2013-04-11 03:33:00,34.9,18.1,29.74,East,90,26.0,30.0,50,0.02,,,0.12,meteohub,2013-04-11 08:33:00,
2013-04-11 03:38:00,34.9,18.1,29.73,NE,45,33.0,33.0,50,0.01,,,0.12,meteohub,2013-04-11 08:38:00,
2013-04-11 03:44:00,34.7,18.0,29.72,East,90,26.0,31.0,50,0.01,,,0.12,meteohub,2013-04-11 08:44:00,
2013-04-11 03:49:00,34.7,18.0,29.72,ENE,68,32.0,33.0,50,0.01,,,0.12,meteohub,2013-04-11 08:49:00,
2013-04-11 03:54:00,34.7,18.0,29.71,East,90,30.0,33.0,50,0.01,,,0.12,meteohub,2013-04-11 08:54:00,
2013-04-11 04:00:00,34.7,18.0,29.72,East,90,28.0,32.0,50,0.01,,,0.12,meteohub,2013-04-11 09:00:00,
2013-04-11 04:05:00,34.7,18.0,29.71,East,90,28.0,32.0,50,0.01,,,0.12,meteohub,2013-04-11 09:05:00,
2013-04-11 04:10:00,34.5,17.8,29.71,East,90,26.0,29.0,50,0.00,,,0.12,meteohub,2013-04-11 09:10:00,
2013-04-11 04:16:00,34.5,18.3,29.71,East,90,30.0,34.0,51,0.01,,,0.13,meteohub,2013-04-11 09:16:00,
2013-04-11 04:21:00,34.5,18.3,29.71,East,90,29.0,34.0,51,0.01,,,0.13,meteohub,2013-04-11 09:21:00,
2013-04-11 04:27:00,34.5,18.3,29.70,East,90,31.0,34.0,51,0.01,,,0.13,meteohub,2013-04-11 09:27:00,
2013-04-11 04:32:00,34.3,17.6,29.70,East,90,29.0,31.0,50,0.01,,,0.13,meteohub,2013-04-11 09:32:00,
2013-04-11 04:37:00,34.3,18.1,29.70,East,90,28.0,31.0,51,0.01,,,0.13,meteohub,2013-04-11 09:37:00,
2013-04-11 04:42:00,34.3,17.6,29.70,East,90,25.0,31.0,50,0.01,,,0.13,meteohub,2013-04-11 09:42:00,
2013-04-11 04:47:00,34.2,18.0,29.70,East,90,24.0,34.0,51,0.01,,,0.13,meteohub,2013-04-11 09:47:00,
2013-04-11 04:52:00,34.3,18.1,29.70,East,90,27.0,34.0,51,0.01,,,0.13,meteohub,2013-04-11 09:52:00,
2013-04-11 04:57:00,34.2,18.0,29.70,East,90,24.0,38.0,51,0.02,,,0.14,meteohub,2013-04-11 09:57:00,
2013-04-11 05:02:00,34.2,18.0,29.70,East,90,23.0,38.0,51,0.02,,,0.14,meteohub,2013-04-11 10:02:00,
2013-04-11 05:08:00,34.2,17.4,29.69,East,90,30.0,30.0,50,0.02,,,0.14,meteohub,2013-04-11 10:08:00,
2013-04-11 05:13:00,34.2,18.0,29.69,East,90,31.0,31.0,51,0.02,,,0.14,meteohub,2013-04-11 10:13:00,
2013-04-11 05:18:00,34.0,17.8,29.70,East,90,23.0,33.0,51,0.01,,,0.14,meteohub,2013-04-11 10:18:00,
2013-04-11 05:23:00,34.0,17.8,29.70,East,90,26.0,33.0,51,0.01,,,0.14,meteohub,2013-04-11 10:23:00,
2013-04-11 05:28:00,34.0,17.8,29.70,East,90,28.0,33.0,51,0.02,,,0.15,meteohub,2013-04-11 10:28:00,
2013-04-11 05:33:00,34.0,17.8,29.70,East,90,21.0,33.0,51,0.02,,,0.15,meteohub,2013-04-11 10:33:00,
2013-04-11 05:38:00,34.0,17.8,29.70,East,90,25.0,33.0,51,0.02,,,0.15,meteohub,2013-04-11 10:38:00,
2013-04-11 05:43:00,34.0,17.8,29.69,SE,135,28.0,29.0,51,0.02,,,0.15,meteohub,2013-04-11 10:43:00,
2013-04-11 05:49:00,33.8,17.6,29.69,East,90,23.0,28.0,51,0.02,,,0.15,meteohub,2013-04-11 10:49:00,
2013-04-11 05:54:00,33.8,17.6,29.68,East,90,29.0,29.0,51,0.01,,,0.15,meteohub,2013-04-11 10:54:00,
2013-04-11 05:59:00,33.8,17.6,29.68,East,90,24.0,30.0,51,0.01,,,0.15,meteohub,2013-04-11 10:59:00,
2013-04-11 06:04:00,33.8,17.6,29.67,East,90,27.0,31.0,51,0.02,,,0.17,meteohub,2013-04-11 11:04:00,
2013-04-11 06:09:00,33.8,17.6,29.67,East,90,28.0,31.0,51,0.02,,,0.17,meteohub,2013-04-11 11:09:00,
2013-04-11 06:14:00,33.8,18.0,29.67,East,90,27.0,31.0,52,0.02,,,0.17,meteohub,2013-04-11 11:14:00,
2013-04-11 06:20:00,33.8,18.0,29.67,East,90,25.0,28.0,52,0.02,,,0.18,meteohub,2013-04-11 11:20:00,
2013-04-11 06:25:00,33.8,18.0,29.68,East,90,23.0,30.0,52,0.02,,,0.18,meteohub,2013-04-11 11:25:00,
2013-04-11 06:30:00,33.8,18.0,29.68,East,90,22.0,29.0,52,0.02,,,0.18,meteohub,2013-04-11 11:30:00,
2013-04-11 06:35:00,33.8,18.0,29.68,East,90,21.0,28.0,52,0.04,,,0.19,meteohub,2013-04-11 11:35:00,
2013-04-11 06:40:00,33.8,18.0,29.67,East,90,27.0,28.0,52,0.04,,,0.19,meteohub,2013-04-11 11:40:00,
2013-04-11 06:46:00,33.8,18.0,29.67,East,90,27.0,27.0,52,0.04,,,0.19,meteohub,2013-04-11 11:46:00,
2013-04-11 06:51:00,33.8,18.0,29.68,East,90,27.0,27.0,52,0.04,,,0.19,meteohub,2013-04-11 11:51:00,
2013-04-11 06:56:00,33.8,18.0,29.67,East,90,23.0,29.0,52,0.05,,,0.20,meteohub,2013-04-11 11:56:00,
2013-04-11 07:02:00,34.0,18.1,29.68,East,90,25.0,29.0,52,0.04,,,0.20,meteohub,2013-04-11 12:02:00,
2013-04-11 07:07:00,34.0,18.1,29.68,East,90,26.0,29.0,52,0.04,,,0.20,meteohub,2013-04-11 12:07:00,
2013-04-11 07:12:00,34.0,18.1,29.68,East,90,23.0,26.0,52,0.04,,,0.20,meteohub,2013-04-11 12:12:00,
2013-04-11 07:17:00,34.0,18.1,29.68,East,90,22.0,26.0,52,0.04,,,0.20,meteohub,2013-04-11 12:17:00,
2013-04-11 07:22:00,34.0,18.1,29.67,East,90,27.0,27.0,52,0.02,,,0.20,meteohub,2013-04-11 12:22:00,
2013-04-11 07:27:00,34.0,18.1,29.67,East,90,22.0,27.0,52,0.04,,,0.21,meteohub,2013-04-11 12:27:00,
2013-04-11 07:33:00,34.2,18.3,29.68,East,90,23.0,30.0,52,0.02,,,0.21,meteohub,2013-04-11 12:33:00,
2013-04-11 07:38:00,34.2,18.3,29.68,East,90,27.0,30.0,52,0.02,,,0.21,meteohub,2013-04-11 12:38:00,
2013-04-11 07:43:00,34.2,18.3,29.68,East,90,22.0,30.0,52,0.04,,,0.22,meteohub,2013-04-11 12:43:00,
2013-04-11 07:49:00,34.2,18.3,29.69,East,90,23.0,27.0,52,0.04,,,0.22,meteohub,2013-04-11 12:49:00,
2013-04-11 07:54:00,34.2,18.3,29.70,East,90,27.0,28.0,52,0.04,,,0.22,meteohub,2013-04-11 12:54:00,
2013-04-11 07:59:00,34.2,18.3,29.71,East,90,11.0,28.0,52,0.02,,,0.22,meteohub,2013-04-11 12:59:00,
2013-04-11 08:05:00,34.3,18.1,29.72,ESE,113,11.0,28.0,51,0.04,,,0.24,meteohub,2013-04-11 13:05:00,
2013-04-11 08:10:00,34.3,18.1,29.73,East,90,15.0,18.0,51,0.04,,,0.24,meteohub,2013-04-11 13:10:00,
2013-04-11 08:15:00,34.3,18.1,29.73,East,90,11.0,17.0,51,0.04,,,0.24,meteohub,2013-04-11 13:15:00,
2013-04-11 08:20:00,34.3,18.1,29.72,East,90,11.0,17.0,51,0.04,,,0.24,meteohub,2013-04-11 13:20:00,
2013-04-11 08:25:00,34.3,18.1,29.71,East,90,15.0,17.0,51,0.04,,,0.25,meteohub,2013-04-11 13:25:00,
2013-04-11 08:30:00,34.5,18.7,29.70,East,90,17.0,17.0,52,0.04,,,0.25,meteohub,2013-04-11 13:30:00,
2013-04-11 08:36:00,34.5,18.7,29.69,East,90,20.0,21.0,52,0.04,,,0.25,meteohub,2013-04-11 13:36:00,
2013-04-11 08:41:00,34.7,18.9,29.68,East,90,23.0,23.0,52,0.02,,,0.25,meteohub,2013-04-11 13:41:00,
2013-04-11 08:47:00,34.9,19.0,29.68,East,90,23.0,23.0,52,0.02,,,0.25,meteohub,2013-04-11 13:47:00,
2013-04-11 08:52:00,34.9,19.0,29.68,East,90,20.0,23.0,52,0.02,,,0.25,meteohub,2013-04-11 13:52:00,
2013-04-11 08:57:00,34.9,19.0,29.67,East,90,23.0,25.0,52,0.02,,,0.25,meteohub,2013-04-11 13:57:00,
2013-04-11 09:02:00,34.9,19.0,29.67,East,90,22.0,27.0,52,0.02,,,0.26,meteohub,2013-04-11 14:02:00,
2013-04-11 09:07:00,34.9,19.0,29.66,East,90,22.0,27.0,52,0.02,,,0.26,meteohub,2013-04-11 14:07:00,
2013-04-11 09:12:00,35.2,19.4,29.66,East,90,22.0,27.0,52,0.02,,,0.26,meteohub,2013-04-11 14:12:00,
2013-04-11 09:17:00,35.4,19.0,29.67,East,90,17.0,27.0,51,0.02,,,0.26,meteohub,2013-04-11 14:17:00,
2013-04-11 09:22:00,35.2,18.9,29.68,East,90,22.0,27.0,51,0.01,,,0.26,meteohub,2013-04-11 14:22:00,
2013-04-11 09:27:00,35.2,18.9,29.69,East,90,17.0,27.0,51,0.01,,,0.26,meteohub,2013-04-11 14:27:00,
2013-04-11 09:32:00,35.2,18.9,29.68,East,90,11.0,27.0,51,0.01,,,0.26,meteohub,2013-04-11 14:32:00,
2013-04-11 09:37:00,35.2,18.9,29.68,East,90,15.0,23.0,51,0.01,,,0.26,meteohub,2013-04-11 14:37:00,
2013-04-11 09:42:00,35.2,18.9,29.68,East,90,24.0,24.0,51,0.01,,,0.26,meteohub,2013-04-11 14:42:00,
2013-04-11 09:47:00,35.4,19.0,29.68,East,90,18.0,24.0,51,0.01,,,0.26,meteohub,2013-04-11 14:47:00,
2013-04-11 09:52:00,35.4,19.0,29.68,East,90,18.0,24.0,51,0.01,,,0.26,meteohub,2013-04-11 14:52:00,
2013-04-11 09:58:00,35.4,19.0,29.66,ENE,68,19.0,24.0,51,0.01,,,0.26,meteohub,2013-04-11 14:58:00,
2013-04-11 10:03:00,35.4,19.0,29.66,East,90,24.0,24.0,51,0.00,,,0.26,meteohub,2013-04-11 15:03:00,
2013-04-11 10:08:00,35.6,19.8,29.66,East,90,17.0,24.0,52,0.00,,,0.26,meteohub,2013-04-11 15:08:00,
2013-04-11 10:14:00,35.8,19.9,29.67,East,90,17.0,24.0,52,0.00,,,0.26,meteohub,2013-04-11 15:14:00,
2013-04-11 10:19:00,36.0,20.1,29.67,East,90,23.0,24.0,52,0.00,,,0.26,meteohub,2013-04-11 15:19:00,
2013-04-11 10:24:00,36.1,19.8,29.67,East,90,22.0,23.0,51,0.00,,,0.26,meteohub,2013-04-11 15:24:00,
2013-04-11 10:29:00,36.1,19.8,29.67,East,90,22.0,26.0,51,0.00,,,0.26,meteohub,2013-04-11 15:29:00,
2013-04-11 10:34:00,36.1,19.8,29.68,East,90,20.0,26.0,51,0.00,,,0.26,meteohub,2013-04-11 15:34:00,
2013-04-11 10:39:00,36.1,19.8,29.68,East,90,20.0,23.0,51,0.00,,,0.26,meteohub,2013-04-11 15:39:00,
2013-04-11 10:45:00,36.3,19.9,29.68,East,90,19.0,22.0,51,0.00,,,0.26,meteohub,2013-04-11 15:45:00,
2013-04-11 10:50:00,36.5,20.1,29.67,East,90,18.0,22.0,51,0.00,,,0.26,meteohub,2013-04-11 15:50:00,
2013-04-11 10:55:00,36.5,20.1,29.67,East,90,19.0,24.0,51,0.00,,,0.26,meteohub,2013-04-11 15:55:00,
2013-04-11 11:00:00,36.5,20.1,29.66,ENE,68,20.0,24.0,51,0.00,,,0.26,meteohub,2013-04-11 16:00:00,
2013-04-11 11:06:00,36.5,20.1,29.66,East,90,24.0,27.0,51,0.00,,,0.26,meteohub,2013-04-11 16:06:00,
2013-04-11 11:11:00,36.9,20.5,29.67,East,90,23.0,27.0,51,0.00,,,0.26,meteohub,2013-04-11 16:11:00,
2013-04-11 11:16:00,36.7,20.3,29.66,East,90,23.0,27.0,51,0.00,,,0.26,meteohub,2013-04-11 16:16:00,
2013-04-11 11:22:00,36.9,20.5,29.66,East,90,20.0,24.0,51,0.00,,,0.26,meteohub,2013-04-11 16:22:00,
2013-04-11 11:27:00,36.9,19.9,29.66,East,90,21.0,23.0,50,0.00,,,0.26,meteohub,2013-04-11 16:27:00,
2013-04-11 11:32:00,36.9,19.9,29.66,East,90,22.0,27.0,50,0.00,,,0.26,meteohub,2013-04-11 16:32:00,
2013-04-11 11:37:00,36.9,19.9,29.65,East,90,22.0,27.0,50,0.00,,,0.26,meteohub,2013-04-11 16:37:00,
2013-04-11 11:42:00,36.9,19.9,29.65,East,90,18.0,27.0,50,0.00,,,0.26,meteohub,2013-04-11 16:42:00,
2013-04-11 11:47:00,36.9,19.9,29.66,East,90,17.0,27.0,50,0.00,,,0.26,meteohub,2013-04-11 16:47:00,
2013-04-11 11:52:00,37.0,20.1,29.65,East,90,16.0,24.0,50,0.00,,,0.26,meteohub,2013-04-11 16:52:00,
2013-04-11 11:57:00,37.0,20.1,29.66,ENE,68,17.0,23.0,50,0.00,,,0.26,meteohub,2013-04-11 16:57:00,
2013-04-11 12:02:00,36.9,19.9,29.65,East,90,17.0,25.0,50,0.00,,,0.26,meteohub,2013-04-11 17:02:00,
2013-04-11 12:07:00,36.9,19.9,29.65,SE,135,19.0,25.0,50,0.00,,,0.26,meteohub,2013-04-11 17:07:00,
2013-04-11 12:12:00,36.9,19.9,29.65,East,90,21.0,25.0,50,0.00,,,0.26,meteohub,2013-04-11 17:12:00,
2013-04-11 12:17:00,36.9,19.9,29.65,East,90,18.0,25.0,50,0.00,,,0.26,meteohub,2013-04-11 17:17:00,
2013-04-11 12:22:00,36.9,20.5,29.64,East,90,23.0,25.0,51,0.00,,,0.26,meteohub,2013-04-11 17:22:00,
2013-04-11 12:27:00,36.9,19.9,29.63,ENE,68,22.0,23.0,50,0.00,,,0.26,meteohub,2013-04-11 17:27:00,
2013-04-11 12:32:00,37.0,20.7,29.64,East,90,21.0,23.0,51,0.00,,,0.26,meteohub,2013-04-11 17:32:00,
2013-04-11 12:37:00,37.0,20.7,29.62,East,90,21.0,23.0,51,0.00,,,0.26,meteohub,2013-04-11 17:37:00,
2013-04-11 12:43:00,37.0,20.7,29.63,East,90,18.0,23.0,51,0.00,,,0.26,meteohub,2013-04-11 17:43:00,
2013-04-11 12:48:00,37.4,20.8,29.63,NE,45,20.0,29.0,51,0.00,,,0.26,meteohub,2013-04-11 17:48:00,
2013-04-11 12:53:00,37.2,20.8,29.63,East,90,23.0,29.0,51,0.00,,,0.26,meteohub,2013-04-11 17:53:00,
2013-04-11 12:58:00,37.2,20.8,29.63,East,90,23.0,26.0,51,0.00,,,0.26,meteohub,2013-04-11 17:58:00,
2013-04-11 13:03:00,37.2,20.8,29.63,East,90,20.0,29.0,51,0.00,,,0.26,meteohub,2013-04-11 18:03:00,
2013-04-11 13:09:00,37.4,20.8,29.62,East,90,20.0,29.0,51,0.00,,,0.26,meteohub,2013-04-11 18:09:00,
2013-04-11 13:14:00,37.2,20.8,29.63,East,90,17.0,23.0,51,0.00,,,0.26,meteohub,2013-04-11 18:14:00,
2013-04-11 13:19:00,37.2,20.8,29.63,East,90,21.0,22.0,51,0.00,,,0.26,meteohub,2013-04-11 18:19:00,
2013-04-11 13:24:00,37.2,20.8,29.63,East,90,21.0,24.0,51,0.00,,,0.26,meteohub,2013-04-11 18:24:00,
2013-04-11 13:29:00,37.2,20.8,29.63,East,90,20.0,27.0,51,0.00,,,0.26,meteohub,2013-04-11 18:29:00,
2013-04-11 13:35:00,37.2,20.8,29.62,East,90,20.0,25.0,51,0.00,,,0.26,meteohub,2013-04-11 18:35:00,
2013-04-11 13:40:00,37.2,20.8,29.63,East,90,21.0,23.0,51,0.00,,,0.26,meteohub,2013-04-11 18:40:00,
2013-04-11 13:45:00,37.2,20.8,29.63,East,90,22.0,24.0,51,0.00,,,0.26,meteohub,2013-04-11 18:45:00,
2013-04-11 13:50:00,37.2,20.8,29.63,ENE,68,23.0,24.0,51,0.00,,,0.26,meteohub,2013-04-11 18:50:00,
2013-04-11 13:55:00,37.2,20.8,29.63,East,90,20.0,24.0,51,0.00,,,0.26,meteohub,2013-04-11 18:55:00,
2013-04-11 14:01:00,37.2,20.8,29.63,East,90,20.0,24.0,51,0.00,,,0.26,meteohub,2013-04-11 19:01:00,
2013-04-11 14:06:00,37.4,20.8,29.62,East,90,20.0,24.0,51,0.00,,,0.26,meteohub,2013-04-11 19:06:00,
2013-04-11 14:12:00,37.4,20.8,29.62,ENE,68,23.0,23.0,51,0.01,,,0.27,meteohub,2013-04-11 19:12:00,
2013-04-11 14:17:00,37.6,21.0,29.62,East,90,24.0,27.0,51,0.01,,,0.27,meteohub,2013-04-11 19:17:00,
2013-04-11 14:22:00,37.9,21.4,29.62,East,90,20.0,27.0,51,0.01,,,0.27,meteohub,2013-04-11 19:22:00,
2013-04-11 14:27:00,37.9,21.4,29.62,East,90,17.0,27.0,51,0.01,,,0.27,meteohub,2013-04-11 19:27:00,
2013-04-11 14:32:00,37.9,21.4,29.61,East,90,23.0,24.0,51,0.01,,,0.27,meteohub,2013-04-11 19:32:00,
2013-04-11 14:37:00,37.9,21.4,29.62,East,90,21.0,23.0,51,0.01,,,0.27,meteohub,2013-04-11 19:37:00,
2013-04-11 14:42:00,38.1,21.6,29.62,East,90,16.0,23.0,51,0.01,,,0.27,meteohub,2013-04-11 19:42:00,
2013-04-11 14:47:00,37.9,21.4,29.62,East,90,17.0,23.0,51,0.01,,,0.27,meteohub,2013-04-11 19:47:00,
2013-04-11 14:52:00,37.8,20.8,29.62,East,90,17.0,24.0,50,0.01,,,0.27,meteohub,2013-04-11 19:52:00,
2013-04-11 14:58:00,37.8,20.8,29.61,East,90,16.0,26.0,50,0.01,,,0.27,meteohub,2013-04-11 19:58:00,
2013-04-11 15:03:00,37.8,20.8,29.62,East,90,18.0,26.0,50,0.01,,,0.27,meteohub,2013-04-11 20:03:00,
2013-04-11 15:09:00,38.1,21.2,29.61,East,90,17.0,23.0,50,0.00,,,0.27,meteohub,2013-04-11 20:09:00,
2013-04-11 15:14:00,37.8,20.8,29.61,East,90,19.0,23.0,50,0.00,,,0.27,meteohub,2013-04-11 20:14:00,
2013-04-11 15:19:00,37.8,20.8,29.62,East,90,20.0,23.0,50,0.00,,,0.27,meteohub,2013-04-11 20:19:00,
2013-04-11 15:24:00,37.9,21.0,29.62,East,90,17.0,23.0,50,0.00,,,0.27,meteohub,2013-04-11 20:24:00,
2013-04-11 15:29:00,37.9,21.0,29.61,East,90,21.0,23.0,50,0.00,,,0.27,meteohub,2013-04-11 20:29:00,
2013-04-11 15:34:00,37.8,20.8,29.61,East,90,20.0,22.0,50,0.00,,,0.27,meteohub,2013-04-11 20:34:00,
2013-04-11 15:40:00,37.8,20.8,29.60,East,90,19.0,26.0,50,0.00,,,0.27,meteohub,2013-04-11 20:40:00,
2013-04-11 15:45:00,37.8,20.8,29.61,East,90,27.0,27.0,50,0.00,,,0.27,meteohub,2013-04-11 20:45:00,
2013-04-11 15:50:00,37.6,20.7,29.60,East,90,19.0,27.0,50,0.00,,,0.27,meteohub,2013-04-11 20:50:00,
2013-04-11 15:55:00,37.6,20.7,29.60,East,90,21.0,27.0,50,0.00,,,0.27,meteohub,2013-04-11 20:55:00,
2013-04-11 16:00:00,37.6,20.7,29.60,East,90,20.0,27.0,50,0.00,,,0.27,meteohub,2013-04-11 21:00:00,
2013-04-11 16:06:00,37.6,20.7,29.60,East,90,13.0,26.0,50,0.00,,,0.27,meteohub,2013-04-11 21:06:00,
2013-04-11 16:11:00,37.4,20.5,29.60,East,90,24.0,24.0,50,0.00,,,0.27,meteohub,2013-04-11 21:11:00,
2013-04-11 16:16:00,37.4,20.5,29.59,East,90,18.0,24.0,50,0.00,,,0.27,meteohub,2013-04-11 21:16:00,
2013-04-11 16:21:00,37.4,20.8,29.60,East,90,15.0,24.0,51,0.00,,,0.27,meteohub,2013-04-11 21:21:00,
2013-04-11 16:26:00,37.4,20.8,29.61,East,90,13.0,24.0,51,0.00,,,0.27,meteohub,2013-04-11 21:26:00,
2013-04-11 16:31:00,37.4,20.8,29.61,East,90,15.0,18.0,51,0.00,,,0.27,meteohub,2013-04-11 21:31:00,
2013-04-11 16:37:00,37.2,20.8,29.61,East,90,17.0,17.0,51,0.00,,,0.27,meteohub,2013-04-11 21:37:00,
2013-04-11 16:42:00,37.2,20.8,29.61,East,90,13.0,17.0,51,0.00,,,0.27,meteohub,2013-04-11 21:42:00,
2013-04-11 16:47:00,37.2,20.8,29.62,East,90,13.0,17.0,51,0.00,,,0.27,meteohub,2013-04-11 21:47:00,
2013-04-11 16:53:00,37.0,20.7,29.61,East,90,12.0,17.0,51,0.00,,,0.27,meteohub,2013-04-11 21:53:00,
2013-04-11 16:58:00,37.0,20.7,29.60,NE,45,16.0,18.0,51,0.00,,,0.27,meteohub,2013-04-11 21:58:00,
2013-04-11 17:03:00,37.0,20.7,29.60,NE,45,18.0,18.0,51,0.00,,,0.27,meteohub,2013-04-11 22:03:00,
2013-04-11 17:08:00,36.9,20.5,29.60,NE,45,17.0,22.0,51,0.00,,,0.27,meteohub,2013-04-11 22:08:00,
2013-04-11 17:14:00,36.9,20.5,29.60,East,90,14.0,22.0,51,0.00,,,0.27,meteohub,2013-04-11 22:14:00,
2013-04-11 17:19:00,36.7,20.3,29.60,East,90,20.0,22.0,51,0.00,,,0.27,meteohub,2013-04-11 22:19:00,
2013-04-11 17:24:00,36.5,20.1,29.61,East,90,14.0,21.0,51,0.00,,,0.27,meteohub,2013-04-11 22:24:00,
2013-04-11 17:29:00,36.5,20.1,29.61,East,90,15.0,21.0,51,0.00,,,0.27,meteohub,2013-04-11 22:29:00,
2013-04-11 17:34:00,36.5,20.1,29.61,ENE,68,20.0,21.0,51,0.00,,,0.27,meteohub,2013-04-11 22:34:00,
2013-04-11 17:39:00,36.5,20.5,29.61,East,90,17.0,20.0,52,0.00,,,0.27,meteohub,2013-04-11 22:39:00,
2013-04-11 17:44:00,36.7,20.7,29.61,East,90,15.0,21.0,52,0.00,,,0.27,meteohub,2013-04-11 22:44:00,
2013-04-11 17:50:00,36.7,20.7,29.60,East,90,20.0,21.0,52,0.00,,,0.27,meteohub,2013-04-11 22:50:00,
2013-04-11 17:55:00,36.7,20.3,29.60,East,90,17.0,21.0,51,0.00,,,0.27,meteohub,2013-04-11 22:55:00,
2013-04-11 18:00:00,36.7,20.3,29.60,East,90,21.0,23.0,51,0.00,,,0.27,meteohub,2013-04-11 23:00:00,
2013-04-11 18:05:00,36.5,20.1,29.59,SSW,203,17.0,23.0,51,0.00,,,0.27,meteohub,2013-04-11 23:05:00,
2013-04-11 18:10:00,36.3,19.9,29.58,East,90,24.0,24.0,51,0.00,,,0.27,meteohub,2013-04-11 23:10:00,
2013-04-11 18:15:00,36.3,20.3,29.57,East,90,21.0,24.0,52,0.00,,,0.27,meteohub,2013-04-11 23:15:00,
2013-04-11 18:21:00,36.3,19.9,29.57,East,90,27.0,27.0,51,0.00,,,0.27,meteohub,2013-04-11 23:21:00,
2013-04-11 18:26:00,36.3,19.9,29.57,East,90,21.0,27.0,51,0.00,,,0.27,meteohub,2013-04-11 23:26:00,
2013-04-11 18:32:00,36.1,20.3,29.58,East,90,21.0,27.0,52,0.00,,,0.27,meteohub,2013-04-11 23:32:00,
2013-04-11 18:37:00,36.3,19.9,29.58,East,90,17.0,27.0,51,0.00,,,0.27,meteohub,2013-04-11 23:37:00,
2013-04-11 18:42:00,36.1,19.8,29.58,East,90,14.0,24.0,51,0.00,,,0.27,meteohub,2013-04-11 23:42:00,
2013-04-11 18:47:00,36.1,19.8,29.59,East,90,17.0,21.0,51,0.00,,,0.27,meteohub,2013-04-11 23:47:00,
2013-04-11 18:52:00,36.1,19.8,29.59,East,90,14.0,19.0,51,0.00,,,0.27,meteohub,2013-04-11 23:52:00,
2013-04-11 18:58:00,36.0,19.6,29.58,East,90,17.0,17.0,51,0.00,,,0.27,meteohub,2013-04-11 23:58:00,
2013-04-11 19:03:00,36.0,19.6,29.59,ESE,113,17.0,20.0,51,0.00,,,0.27,meteohub,2013-04-12 00:03:00,
2013-04-11 19:08:00,35.8,19.4,29.59,ENE,68,17.0,20.0,51,0.00,,,0.27,meteohub,2013-04-12 00:08:00,
2013-04-11 19:14:00,35.6,19.2,29.59,East,90,15.0,20.0,51,0.00,,,0.27,meteohub,2013-04-12 00:14:00,
2013-04-11 19:19:00,35.6,19.2,29.59,East,90,15.0,20.0,51,0.00,,,0.27,meteohub,2013-04-12 00:19:00,
2013-04-11 19:24:00,35.6,19.8,29.59,East,90,15.0,18.0,52,0.00,,,0.27,meteohub,2013-04-12 00:24:00,
2013-04-11 19:29:00,35.4,19.6,29.58,East,90,17.0,18.0,52,0.00,,,0.27,meteohub,2013-04-12 00:29:00,
2013-04-11 19:35:00,35.4,19.6,29.58,East,90,16.0,18.0,52,0.00,,,0.27,meteohub,2013-04-12 00:35:00,
2013-04-11 19:40:00,35.4,19.6,29.58,East,90,16.0,18.0,52,0.00,,,0.27,meteohub,2013-04-12 00:40:00,
2013-04-11 19:45:00,35.4,19.6,29.58,NE,45,13.0,18.0,52,0.00,,,0.27,meteohub,2013-04-12 00:45:00,
2013-04-11 19:51:00,35.2,19.4,29.57,ENE,68,15.0,18.0,52,0.00,,,0.27,meteohub,2013-04-12 00:51:00,
2013-04-11 19:56:00,35.2,19.4,29.57,East,90,15.0,21.0,52,0.00,,,0.27,meteohub,2013-04-12 00:56:00,
2013-04-11 20:02:00,35.2,19.4,29.57,East,90,15.0,21.0,52,0.01,,,0.28,meteohub,2013-04-12 01:02:00,
2013-04-11 20:07:00,35.2,19.4,29.57,East,90,15.0,21.0,52,0.01,,,0.28,meteohub,2013-04-12 01:07:00,
2013-04-11 20:12:00,35.2,19.8,29.57,East,90,16.0,18.0,53,0.01,,,0.28,meteohub,2013-04-12 01:12:00,
2013-04-11 20:18:00,35.1,19.2,29.57,East,90,20.0,20.0,52,0.01,,,0.28,meteohub,2013-04-12 01:18:00,
2013-04-11 20:23:00,35.2,19.8,29.57,East,90,15.0,20.0,53,0.01,,,0.28,meteohub,2013-04-12 01:23:00,
2013-04-11 20:28:00,35.2,19.4,29.57,East,90,16.0,20.0,52,0.01,,,0.28,meteohub,2013-04-12 01:28:00,
2013-04-11 20:33:00,35.1,19.6,29.57,East,90,15.0,20.0,53,0.01,,,0.28,meteohub,2013-04-12 01:33:00,
2013-04-11 20:38:00,35.1,19.6,29.57,NE,45,16.0,20.0,53,0.01,,,0.28,meteohub,2013-04-12 01:38:00,
2013-04-11 20:43:00,35.1,19.6,29.57,East,90,15.0,18.0,53,0.01,,,0.28,meteohub,2013-04-12 01:43:00,
2013-04-11 20:49:00,35.1,19.6,29.57,East,90,13.0,20.0,53,0.01,,,0.28,meteohub,2013-04-12 01:49:00,
2013-04-11 20:54:00,35.1,19.6,29.57,East,90,14.0,20.0,53,0.01,,,0.28,meteohub,2013-04-12 01:54:00,
2013-04-11 20:59:00,34.9,19.4,29.56,East,90,15.0,20.0,53,0.00,,,0.28,meteohub,2013-04-12 01:59:00,
2013-04-11 21:04:00,34.9,19.4,29.56,ENE,68,15.0,17.0,53,0.00,,,0.28,meteohub,2013-04-12 02:04:00,
2013-04-11 21:09:00,34.9,19.4,29.55,East,90,18.0,18.0,53,0.00,,,0.28,meteohub,2013-04-12 02:09:00,
2013-04-11 21:15:00,34.9,19.4,29.55,East,90,17.0,19.0,53,0.00,,,0.28,meteohub,2013-04-12 02:15:00,
2013-04-11 21:20:00,34.9,19.4,29.55,East,90,13.0,20.0,53,0.00,,,0.28,meteohub,2013-04-12 02:20:00,
2013-04-11 21:25:00,34.9,19.4,29.56,East,90,13.0,20.0,53,0.00,,,0.28,meteohub,2013-04-12 02:25:00,
2013-04-11 21:30:00,34.9,19.4,29.56,ENE,68,12.0,17.0,53,0.00,,,0.28,meteohub,2013-04-12 02:30:00,
2013-04-11 21:36:00,34.9,19.4,29.56,East,90,12.0,17.0,53,0.00,,,0.28,meteohub,2013-04-12 02:36:00,
2013-04-11 21:41:00,34.7,19.4,29.56,East,90,16.0,17.0,53,0.00,,,0.28,meteohub,2013-04-12 02:41:00,
2013-04-11 21:47:00,34.7,19.4,29.56,East,90,13.0,18.0,53,0.00,,,0.28,meteohub,2013-04-12 02:47:00,
2013-04-11 21:52:00,34.7,19.4,29.56,East,90,17.0,18.0,53,0.00,,,0.28,meteohub,2013-04-12 02:52:00,
2013-04-11 21:57:00,34.7,19.4,29.56,East,90,15.0,19.0,53,0.00,,,0.28,meteohub,2013-04-12 02:57:00,
2013-04-11 22:02:00,34.7,19.4,29.56,ENE,68,16.0,19.0,53,0.00,,,0.28,meteohub,2013-04-12 03:02:00,
2013-04-11 22:07:00,34.7,19.4,29.56,ENE,68,16.0,19.0,53,0.00,,,0.28,meteohub,2013-04-12 03:07:00,
2013-04-11 22:12:00,34.5,19.2,29.57,East,90,16.0,17.0,53,0.00,,,0.28,meteohub,2013-04-12 03:12:00,
2013-04-11 22:17:00,34.7,19.4,29.57,East,90,11.0,17.0,53,0.00,,,0.28,meteohub,2013-04-12 03:17:00,
2013-04-11 22:22:00,34.5,19.2,29.57,East,90,10.0,17.0,53,0.00,,,0.28,meteohub,2013-04-12 03:22:00,
2013-04-11 22:27:00,34.5,19.2,29.57,East,90,12.0,16.0,53,0.00,,,0.28,meteohub,2013-04-12 03:27:00,
2013-04-11 22:32:00,34.5,19.2,29.57,East,90,11.0,15.0,53,0.00,,,0.28,meteohub,2013-04-12 03:32:00,
2013-04-11 22:37:00,34.5,19.2,29.57,East,90,12.0,13.0,53,0.00,,,0.28,meteohub,2013-04-12 03:37:00,
2013-04-11 22:42:00,34.5,19.2,29.57,East,90,8.0,14.0,53,0.00,,,0.28,meteohub,2013-04-12 03:42:00,
2013-04-11 22:47:00,34.5,19.2,29.57,East,90,11.0,14.0,53,0.01,,,0.30,meteohub,2013-04-12 03:47:00,
2013-04-11 22:52:00,34.5,19.2,29.57,NE,45,11.0,14.0,53,0.01,,,0.30,meteohub,2013-04-12 03:52:00,
2013-04-11 22:57:00,34.3,19.0,29.57,East,90,11.0,12.0,53,0.01,,,0.30,meteohub,2013-04-12 03:57:00,
2013-04-11 23:00:00,34.7,19.4,29.57,East,90,9.0,12.0,53,0.01,,,0.30,meteohub,2013-04-12 04:00:00,
2013-04-11 23:01:00,34.7,19.4,29.57,East,90,9.0,12.0,53,0.01,,,0.30,meteohub,2013-04-12 04:01:00,
2013-04-11 23:02:00,34.7,19.4,29.57,East,90,9.0,12.0,53,0.01,,,0.30,meteohub,2013-04-12 04:02:00,
2013-04-11 23:07:00,34.7,19.4,29.57,East,90,9.0,11.0,53,0.01,,,0.30,meteohub,2013-04-12 04:07:00,
2013-04-11 23:12:00,34.3,19.0,29.57,East,90,8.0,11.0,53,0.01,,,0.30,meteohub,2013-04-12 04:12:00,
2013-04-11 23:17:00,34.7,19.4,29.56,ENE,68,11.0,11.0,53,0.01,,,0.30,meteohub,2013-04-12 04:17:00,
2013-04-11 23:22:00,34.2,18.9,29.56,ENE,68,9.0,11.0,53,0.01,,,0.30,meteohub,2013-04-12 04:22:00,
2013-04-11 23:27:00,34.3,19.0,29.56,ENE,68,8.0,11.0,53,0.01,,,0.30,meteohub,2013-04-12 04:27:00,
2013-04-11 23:32:00,34.3,19.0,29.57,East,90,8.0,11.0,53,0.01,,,0.30,meteohub,2013-04-12 04:32:00,
2013-04-11 23:37:00,34.3,19.0,29.57,East,90,9.0,11.0,53,0.01,,,0.30,meteohub,2013-04-12 04:37:00,
2013-04-11 23:42:00,34.2,18.9,29.57,East,90,11.0,11.0,53,0.01,,,0.30,meteohub,2013-04-12 04:42:00,
2013-04-11 23:47:00,34.2,18.9,29.57,East,90,9.0,11.0,53,0.00,,,0.30,meteohub,2013-04-12 04:47:00,
2013-04-11 23:52:00,34.0,18.7,29.57,NE,45,9.0,11.0,53,0.00,,,0.30,meteohub,2013-04-12 04:52:00,
2013-04-11 23:57:00,34.0,18.7,29.56,East,90,10.0,13.0,53,0.00,,,0.30,meteohub,2013-04-12 04:57:00,